Time;durP1;ratioP1;P1;durP2;ratioP2;P2;SDS_P1;SDS_P2;PMS_P1;PMS_P2;Temp;Humidity;BMP_temperature;BMP_pressure;BME280_temperature;BME280_humidity;BME280_pressure;Samples;Min_cycle;Max_cycle;Signal;HPM_P1;HPM_P2
2021/03/18 00:01:04;;;;;;;64.50;36.60;;;;;;;6.22;80.59;99740.52;1735925;81;21001;-76
2021/03/18 00:03:35;;;;;;;70.75;37.58;;;;;;;6.20;80.48;99738.47;1735764;82;21494;-77
2021/03/18 00:06:04;;;;;;;72.32;40.28;;;;;;;6.12;80.41;99742.81;1723890;82;20974;-78
2021/03/18 00:08:32;;;;;;;73.22;37.20;;;;;;;6.05;80.61;99742.78;1719468;83;21022;-77
2021/03/18 00:11:03;;;;;;;73.37;39.40;;;;;;;5.99;80.77;99740.05;1783261;79;20942;-79
2021/03/18 00:13:31;;;;;;;66.17;37.03;;;;;;;5.99;80.90;99745.72;1783331;79;21001;-78
2021/03/18 00:15:59;;;;;;;68.83;38.15;;;;;;;5.97;80.98;99747.56;1782983;79;21189;-78
2021/03/18 00:18:32;;;;;;;69.58;38.35;;;;;;;5.95;81.03;99752.84;1782691;80;21483;-78
2021/03/18 00:21:01;;;;;;;70.87;37.28;;;;;;;5.94;81.23;99743.81;1781812;80;21005;-79
2021/03/18 00:23:29;;;;;;;75.45;39.65;;;;;;;5.93;81.34;99746.02;1782695;80;21037;-78
2021/03/18 00:25:59;;;;;;;78.12;40.60;;;;;;;5.92;81.57;99742.59;1782686;80;21348;-78
2021/03/18 00:28:27;;;;;;;80.97;39.53;;;;;;;6.00;81.93;99747.38;1782642;80;21183;-78
2021/03/18 00:30:55;;;;;;;76.35;39.33;;;;;;;6.09;81.63;99744.73;1782619;80;20966;-79
2021/03/18 00:33:24;;;;;;;75.50;40.00;;;;;;;6.16;81.49;99750.84;1782727;80;20977;-78
2021/03/18 00:35:52;;;;;;;74.03;39.53;;;;;;;6.25;81.22;99746.02;1782600;79;21017;-80
2021/03/18 00:38:21;;;;;;;67.78;38.75;;;;;;;6.25;81.03;99739.51;1782655;80;21009;-79
2021/03/18 00:40:55;;;;;;;76.40;42.58;;;;;;;6.27;80.97;99737.66;1782683;79;22153;-76
2021/03/18 00:43:23;;;;;;;72.78;38.25;;;;;;;6.28;80.91;99744.09;1782390;80;21639;-76
2021/03/18 00:45:51;;;;;;;79.50;40.95;;;;;;;6.31;80.83;99743.91;1782637;80;21510;-77
2021/03/18 00:48:22;;;;;;;77.95;39.85;;;;;;;6.36;80.51;99748.41;1782689;80;20982;-76
2021/03/18 00:50:56;;;;;;;77.03;38.25;;;;;;;6.35;80.30;99741.98;1782733;80;20973;-77
2021/03/18 00:53:30;;;;;;;70.37;38.00;;;;;;;6.34;80.16;99734.64;1752317;80;21504;-77
2021/03/18 00:55:58;;;;;;;68.57;36.50;;;;;;;6.34;80.12;99741.15;1782616;80;20942;-78
2021/03/18 00:58:28;;;;;;;72.10;38.38;;;;;;;6.35;80.10;99743.28;1782730;80;21356;-76
2021/03/18 01:00:59;;;;;;;73.02;39.25;;;;;;;6.34;80.09;99743.75;1752297;80;21495;-77
2021/03/18 01:03:31;;;;;;;71.62;36.63;;;;;;;6.30;79.95;99743.55;1752206;80;20890;-78
2021/03/18 01:06:10;;;;;;;70.85;37.33;;;;;;;6.29;79.86;99741.02;1758027;80;21462;-77
2021/03/18 01:08:38;;;;;;;78.72;40.10;;;;;;;6.22;79.87;99740.52;1788132;78;20945;-77
2021/03/18 01:11:15;;;;;;;76.50;38.53;;;;;;;6.20;80.14;99741.08;1788246;80;20965;-77
2021/03/18 01:13:46;;;;;;;77.47;40.88;;;;;;;6.25;80.07;99740.38;1788212;80;21022;-76
2021/03/18 01:16:24;;;;;;;68.00;37.00;;;;;;;6.26;79.89;99742.51;1788233;80;21087;-77
2021/03/18 01:18:54;;;;;;;72.58;38.73;;;;;;;6.25;79.94;99732.56;1788345;80;22276;-76
2021/03/18 01:21:27;;;;;;;79.50;40.83;;;;;;;6.26;79.81;99738.60;1788118;79;20997;-77
2021/03/18 01:23:55;;;;;;;83.33;40.85;;;;;;;6.22;79.82;99736.63;1788179;80;20946;-76
2021/03/18 01:26:23;;;;;;;82.78;39.95;;;;;;;6.19;79.96;99737.64;1788227;79;21443;-76
2021/03/18 01:28:51;;;;;;;83.30;41.02;;;;;;;6.22;80.10;99735.32;1788322;80;20969;-76
2021/03/18 01:31:19;;;;;;;95.30;42.20;;;;;;;6.24;79.89;99732.17;1788226;78;22560;-77
2021/03/18 01:33:47;;;;;;;80.80;39.08;;;;;;;6.22;79.89;99739.22;1788212;80;20946;-78
2021/03/18 01:36:16;;;;;;;80.47;41.85;;;;;;;6.16;79.84;99731.31;1788240;80;21111;-77
2021/03/18 01:38:45;;;;;;;79.00;40.10;;;;;;;6.10;79.89;99736.85;1788252;79;21467;-77
2021/03/18 01:41:17;;;;;;;74.15;38.70;;;;;;;6.06;79.92;99737.95;1788237;79;21001;-79
2021/03/18 01:43:46;;;;;;;87.37;42.23;;;;;;;6.06;80.29;99744.45;1788380;80;22358;-78
2021/03/18 01:46:15;;;;;;;86.82;44.10;;;;;;;6.05;80.29;99739.32;1788231;79;20981;-76
2021/03/18 01:48:43;;;;;;;91.50;43.20;;;;;;;6.07;80.30;99733.13;1788092;80;20954;-79
2021/03/18 01:51:14;;;;;;;90.77;42.53;;;;;;;6.07;80.09;99743.98;1788138;79;21387;-77
2021/03/18 01:53:42;;;;;;;83.55;42.27;;;;;;;6.02;80.15;99737.73;1788224;79;20978;-78
2021/03/18 01:56:11;;;;;;;83.05;43.87;;;;;;;6.02;80.20;99736.43;1788108;80;21410;-78
2021/03/18 01:58:43;;;;;;;85.77;42.40;;;;;;;6.01;80.19;99739.97;1788089;79;21068;-78
2021/03/18 02:01:13;;;;;;;87.72;43.63;;;;;;;6.00;80.28;99738.27;1788199;79;20986;-78
2021/03/18 02:03:42;;;;;;;83.25;42.75;;;;;;;6.00;80.56;99739.58;1788209;79;21053;-79
2021/03/18 02:06:10;;;;;;;89.05;40.28;;;;;;;6.02;80.59;99740.34;1790213;79;21037;-77
2021/03/18 02:08:40;;;;;;;89.77;45.58;;;;;;;6.05;80.51;99741.48;1791201;80;21356;-78
2021/03/18 02:11:08;;;;;;;84.75;41.55;;;;;;;6.04;80.29;99741.09;1791214;80;20906;-79
2021/03/18 02:13:36;;;;;;;79.20;42.53;;;;;;;6.04;80.15;99747.59;1791180;80;20954;-77
2021/03/18 02:16:10;;;;;;;74.85;39.00;;;;;;;6.06;80.05;99752.26;1791156;78;21501;-78
2021/03/18 02:19:08;;;;;;;76.42;38.15;;;;;;;6.07;80.01;99749.19;1791466;79;20918;-79
2021/03/18 02:22:08;;;;;;;74.58;38.28;;;;;;;6.05;80.06;99749.30;1790713;79;22046;-77
2021/03/18 02:24:49;;;;;;;80.55;36.63;;;;;;;6.05;79.91;99749.73;1789281;80;20950;-77
2021/03/18 02:28:05;;;;;;;77.92;38.73;;;;;;;5.95;79.75;99748.11;1791273;78;20937;-78
2021/03/18 02:31:03;;;;;;;68.52;36.08;;;;;;;5.85;79.77;99753.39;1792403;80;21427;-79
2021/03/18 02:34:09;;;;;;;67.95;35.05;;;;;;;5.80;80.01;99753.20;1793094;79;21068;-78
2021/03/18 02:36:45;;;;;;;;;;;;;;;5.76;80.17;99761.27;1794430;80;21502;-76
2021/03/18 02:39:21;;;;;;;75.92;35.48;;;;;;;5.73;80.23;99763.54;1765454;80;20434;-79
2021/03/18 02:41:52;;;;;;;81.57;38.25;;;;;;;5.73;80.29;99766.14;1790990;79;20945;-77
2021/03/18 02:44:25;;;;;;;66.65;34.35;;;;;;;5.74;80.46;99763.94;1791171;79;21044;-77
2021/03/18 02:47:02;;;;;;;69.55;34.98;;;;;;;5.79;80.33;99762.39;1791238;79;21478;-77
2021/03/18 02:49:37;;;;;;;71.15;33.53;;;;;;;5.78;80.22;99764.59;1791181;78;21357;-78
2021/03/18 02:52:05;;;;;;;;;;;;;;;5.75;80.22;99768.67;1769149;80;21498;-77
2021/03/18 02:54:35;;;;;;;70.50;33.33;;;;;;;5.72;80.25;99770.15;1791233;80;20166;-77
2021/03/18 02:57:06;;;;;;;73.12;32.98;;;;;;;5.70;80.40;99768.92;1791200;78;21017;-78
2021/03/18 02:59:37;;;;;;;74.72;33.65;;;;;;;5.68;80.41;99766.86;1791363;78;21000;-78
2021/03/18 03:02:20;;;;;;;74.65;36.00;;;;;;;5.66;80.37;99762.66;1765648;80;21377;-77
2021/03/18 03:04:50;;;;;;;70.83;34.60;;;;;;;5.63;80.43;99766.75;1790962;78;21650;-78
2021/03/18 03:07:18;;;;;;;68.50;34.70;;;;;;;5.59;80.48;99769.48;1782621;80;20910;-77
2021/03/18 03:09:47;;;;;;;62.38;34.92;;;;;;;5.58;80.66;99769.12;1782582;79;20926;-78
2021/03/18 03:12:16;;;;;;;68.65;34.38;;;;;;;5.57;80.69;99771.80;1782843;79;21345;-78
2021/03/18 03:14:46;;;;;;;75.55;34.85;;;;;;;5.54;80.71;99775.41;1782686;80;21186;-78
2021/03/18 03:17:18;;;;;;;86.97;37.67;;;;;;;5.52;80.69;99775.11;1782513;80;20986;-77
2021/03/18 03:19:46;;;;;;;70.15;32.90;;;;;;;5.48;80.72;99780.09;1782811;80;20930;-77
2021/03/18 03:22:14;;;;;;;68.15;32.17;;;;;;;5.47;80.75;99774.05;1782714;80;20957;-77
2021/03/18 03:24:44;;;;;;;65.72;34.23;;;;;;;5.47;80.69;99774.05;1784076;79;21072;-76
2021/03/18 03:27:12;;;;;;;69.40;33.48;;;;;;;5.45;80.73;99778.93;1784334;80;21405;-75
2021/03/18 03:29:44;;;;;;;67.27;33.65;;;;;;;5.40;80.80;99774.84;1783167;80;20981;-79
2021/03/18 03:32:13;;;;;;;81.47;32.58;;;;;;;5.39;80.84;99773.61;1783691;80;21033;-75
2021/03/18 03:34:42;;;;;;;74.17;33.53;;;;;;;5.39;80.73;99776.20;1782747;80;21487;-77
2021/03/18 03:37:10;;;;;;;71.65;34.30;;;;;;;5.35;80.65;99780.71;1782760;80;21439;-77
2021/03/18 03:39:39;;;;;;;65.97;34.80;;;;;;;5.29;80.70;99777.16;1782578;79;21206;-76
2021/03/18 03:42:09;;;;;;;67.82;32.98;;;;;;;5.24;80.82;99777.83;1782507;79;20938;-78
2021/03/18 03:44:39;;;;;;;60.52;33.45;;;;;;;5.18;80.87;99773.80;1782540;79;20938;-78
2021/03/18 03:47:07;;;;;;;63.70;32.25;;;;;;;5.17;81.02;99777.77;1782552;79;20926;-77
2021/03/18 03:49:36;;;;;;;73.87;33.50;;;;;;;5.10;81.14;99773.81;1782675;80;21076;-77
2021/03/18 03:52:39;;;;;;;70.28;33.95;;;;;;;5.08;81.25;99775.65;1782720;80;21335;-77
2021/03/18 03:55:53;;;;;;;75.12;34.90;;;;;;;5.07;81.31;99777.84;1782575;79;20950;-77
2021/03/18 03:58:33;;;;;;;64.85;31.48;;;;;;;5.11;81.29;99780.67;1782850;79;21029;-76
2021/03/18 04:01:04;;;;;;;63.00;30.32;;;;;;;5.12;81.23;99780.61;1782599;80;21017;-76
2021/03/18 04:03:35;;;;;;;65.67;33.95;;;;;;;5.14;81.18;99780.54;1782661;80;20910;-75
2021/03/18 04:06:04;;;;;;;71.42;34.05;;;;;;;5.16;81.26;99785.20;1782506;79;21791;-76
2021/03/18 04:08:33;;;;;;;78.83;32.98;;;;;;;5.19;81.06;99774.64;1782648;80;21013;-78
2021/03/18 04:11:01;;;;;;;81.10;34.13;;;;;;;5.19;80.75;99783.27;1782694;79;20965;-77
2021/03/18 04:13:30;;;;;;;70.37;34.38;;;;;;;5.16;80.82;99782.60;1782844;80;21081;-78
2021/03/18 04:16:00;;;;;;;64.75;33.85;;;;;;;5.13;80.78;99779.67;1752808;80;20957;-77
2021/03/18 04:18:31;;;;;;;64.12;31.05;;;;;;;5.11;80.77;99779.37;1782689;79;21373;-77
2021/03/18 04:21:00;;;;;;;63.70;32.15;;;;;;;5.07;80.91;99769.62;1782693;80;21038;-77
2021/03/18 04:23:27;;;;;;;62.08;31.10;;;;;;;5.04;80.97;99776.25;1782784;80;21344;-76
2021/03/18 04:25:58;;;;;;;70.52;33.63;;;;;;;4.98;81.12;99773.52;1752324;80;20891;-76
2021/03/18 04:28:29;;;;;;;75.17;30.48;;;;;;;4.96;81.28;99779.72;1782789;79;21316;-75
2021/03/18 04:30:58;;;;;;;67.90;33.05;;;;;;;4.94;81.29;99777.66;1782598;80;21373;-77
2021/03/18 04:33:27;;;;;;;64.45;31.30;;;;;;;4.95;81.20;99790.55;1782696;79;20914;-77
2021/03/18 04:35:57;;;;;;;63.48;32.30;;;;;;;4.98;81.25;99794.77;1782727;80;20894;-76
2021/03/18 04:38:27;;;;;;;65.75;31.40;;;;;;;4.98;81.29;99786.98;1782763;80;20922;-76
2021/03/18 04:40:57;;;;;;;61.63;32.25;;;;;;;4.95;81.34;99789.24;1782768;80;20942;-77
2021/03/18 04:43:25;;;;;;;68.37;33.63;;;;;;;4.95;81.40;99787.11;1782717;80;21190;-78
2021/03/18 04:45:57;;;;;;;72.27;33.08;;;;;;;4.95;81.52;99791.01;1782646;80;20954;-77
2021/03/18 04:48:26;;;;;;;75.50;32.30;;;;;;;4.94;81.47;99799.27;1782761;80;20942;-78
2021/03/18 04:50:55;;;;;;;75.05;35.43;;;;;;;4.90;81.33;99799.50;1782614;80;20934;-78
2021/03/18 04:53:23;;;;;;;65.65;32.63;;;;;;;4.90;81.54;99799.50;1782616;80;21084;-78
2021/03/18 04:55:52;;;;;;;72.08;32.90;;;;;;;4.97;81.64;99804.30;1782630;80;21140;-77
2021/03/18 04:58:20;;;;;;;66.55;32.50;;;;;;;5.00;81.46;99807.20;1782510;79;21064;-76
2021/03/18 05:00:49;;;;;;;64.80;32.60;;;;;;;4.99;81.47;99812.86;1782621;79;20993;-77
2021/03/18 05:03:17;;;;;;;71.77;32.83;;;;;;;5.02;81.43;99811.03;1752477;80;20910;-76
2021/03/18 05:05:46;;;;;;;76.22;33.30;;;;;;;5.03;81.47;99804.94;1752471;79;20922;-76
2021/03/18 05:08:17;;;;;;;76.15;34.33;;;;;;;5.03;81.26;99805.77;1782585;79;21395;-78
2021/03/18 05:10:45;;;;;;;75.80;35.03;;;;;;;4.97;81.21;99808.20;1782527;80;20942;-76
2021/03/18 05:13:14;;;;;;;71.55;34.03;;;;;;;4.94;81.21;99814.86;1752855;79;21014;-76
2021/03/18 05:15:44;;;;;;;69.95;31.20;;;;;;;4.93;81.27;99819.66;1729416;80;21308;-77
2021/03/18 05:18:15;;;;;;;76.62;33.73;;;;;;;4.90;81.41;99829.38;1752607;80;21431;-79
2021/03/18 05:20:46;;;;;;;67.95;33.53;;;;;;;4.95;81.52;99829.98;1782608;80;21188;-76
2021/03/18 05:23:16;;;;;;;73.28;31.10;;;;;;;4.98;81.30;99839.77;1782675;79;21487;-74
2021/03/18 05:25:45;;;;;;;73.40;34.27;;;;;;;5.02;81.28;99835.72;1782548;80;21013;-76
2021/03/18 05:28:14;;;;;;;76.97;33.13;;;;;;;5.08;81.46;99839.31;1782687;80;20997;-76
2021/03/18 05:30:43;;;;;;;76.20;35.45;;;;;;;5.14;81.20;99837.72;1782591;79;20977;-76
2021/03/18 05:33:11;;;;;;;80.38;35.43;;;;;;;5.18;81.06;99840.55;1782591;79;21198;-76
2021/03/18 05:35:42;;;;;;;75.17;34.08;;;;;;;5.21;80.74;99843.45;1782553;80;20930;-73
2021/03/18 05:38:11;;;;;;;74.67;34.75;;;;;;;5.18;80.58;99841.84;1782560;80;21033;-80
2021/03/18 05:40:41;;;;;;;74.25;31.93;;;;;;;5.16;80.67;99844.52;1782595;79;21065;-80
2021/03/18 05:43:10;;;;;;;71.82;33.60;;;;;;;5.18;80.63;99849.17;1782709;80;21578;-79
2021/03/18 05:45:38;;;;;;;74.75;32.03;;;;;;;5.20;80.40;99854.27;1782535;80;21656;-77
2021/03/18 05:48:07;;;;;;;82.08;34.45;;;;;;;5.22;80.39;99858.11;1782499;80;20946;-78
2021/03/18 05:50:37;;;;;;;71.35;31.70;;;;;;;5.19;80.43;99858.64;1782536;80;20954;-79
2021/03/18 05:53:06;;;;;;;82.02;35.75;;;;;;;5.20;80.62;99864.67;1782516;80;20946;-79
2021/03/18 05:55:35;;;;;;;78.00;35.38;;;;;;;5.22;80.36;99860.24;1782574;80;20978;-77
2021/03/18 05:58:04;;;;;;;77.32;35.10;;;;;;;5.25;80.36;99863.17;1752502;80;21139;-77
2021/03/18 06:00:33;;;;;;;69.35;33.20;;;;;;;5.26;80.21;99864.37;1782433;79;21021;-78
2021/03/18 06:03:02;;;;;;;69.75;31.30;;;;;;;5.27;80.12;99871.70;1782545;79;20941;-77
2021/03/18 06:05:30;;;;;;;72.30;33.45;;;;;;;5.28;80.03;99872.94;1782584;79;20994;-78
2021/03/18 06:07:58;;;;;;;66.35;32.15;;;;;;;5.26;79.88;99874.77;1790225;79;20941;-80
2021/03/18 06:10:26;;;;;;;66.25;32.55;;;;;;;5.25;80.12;99873.10;1791237;80;22586;-78
2021/03/18 06:12:56;;;;;;;69.37;32.90;;;;;;;5.29;80.20;99882.44;1791023;80;20962;-78
2021/03/18 06:15:25;;;;;;;75.17;36.55;;;;;;;5.29;79.95;99882.88;1791156;78;21100;-78
2021/03/18 06:17:55;;;;;;;78.52;35.30;;;;;;;5.25;80.04;99884.80;1790865;78;20941;-77
2021/03/18 06:20:26;;;;;;;84.67;36.53;;;;;;;5.23;79.98;99885.80;1791267;78;21574;-77
2021/03/18 06:22:54;;;;;;;66.80;31.20;;;;;;;5.25;80.06;99886.56;1791096;80;21359;-78
2021/03/18 06:25:32;;;;;;;67.75;35.08;;;;;;;5.28;80.05;99888.53;1791040;80;21080;-77
2021/03/18 06:28:22;;;;;;;67.67;32.13;;;;;;;5.27;79.89;99889.47;1791147;78;21020;-77
2021/03/18 06:31:09;;;;;;;72.12;31.05;;;;;;;5.24;80.12;99895.27;1791097;79;21059;-77
2021/03/18 06:33:51;;;;;;;71.15;34.20;;;;;;;5.24;80.22;99896.09;1791320;78;20957;-77
2021/03/18 06:36:34;;;;;;;69.42;33.67;;;;;;;5.24;80.25;99896.56;1791307;80;21185;-76
2021/03/18 06:39:16;;;;;;;72.53;35.48;;;;;;;5.29;80.36;99897.17;1791102;78;20953;-77
2021/03/18 06:41:47;;;;;;;73.72;34.38;;;;;;;5.35;80.22;99899.47;1791149;78;20964;-78
2021/03/18 06:44:22;;;;;;;63.92;34.25;;;;;;;5.36;79.97;99898.10;1791195;80;20937;-77
2021/03/18 06:46:54;;;;;;;;;;;;;;;5.36;79.99;99903.30;1793849;80;21028;-77
2021/03/18 06:49:25;;;;;;;79.35;35.45;;;;;;;5.36;79.97;99903.30;1791313;80;21269;-77
2021/03/18 06:52:09;;;;;;;72.25;34.25;;;;;;;5.36;80.01;99903.77;1791309;78;20985;-77
2021/03/18 06:54:42;;;;;;;;;;;;;;;5.36;80.07;99902.00;1725520;82;21533;-79
2021/03/18 06:57:23;;;;;;;63.52;31.30;;;;;;;5.45;80.27;99902.44;1890120;76;23169;-79
2021/03/18 06:59:54;;;;;;;68.70;34.43;;;;;;;5.41;80.30;99909.56;1861039;77;20891;-78
2021/03/18 07:02:22;;;;;;;65.45;34.98;;;;;;;5.42;80.20;99906.50;1823243;78;21190;-78
2021/03/18 07:04:55;;;;;;;72.40;35.48;;;;;;;5.42;80.00;99907.80;1823183;78;20997;-78
2021/03/18 07:07:25;;;;;;;68.15;37.45;;;;;;;5.39;80.05;99901.00;1823261;78;20944;-77
2021/03/18 07:09:55;;;;;;;68.33;34.85;;;;;;;5.36;80.07;99902.47;1823116;78;20999;-77
2021/03/18 07:12:31;;;;;;;64.45;32.78;;;;;;;5.30;80.12;99906.66;1823207;78;20944;-76
2021/03/18 07:15:02;;;;;;;67.92;34.63;;;;;;;5.26;80.37;99903.83;1823162;78;21204;-76
2021/03/18 07:17:35;;;;;;;70.25;34.65;;;;;;;5.31;80.61;99906.56;1823084;78;21066;-77
2021/03/18 07:20:21;;;;;;;68.47;33.38;;;;;;;5.35;80.42;99903.37;1823408;78;21370;-74
2021/03/18 07:22:51;;;;;;;61.67;33.53;;;;;;;5.37;80.34;99909.33;1823382;78;20928;-74
2021/03/18 07:25:25;;;;;;;60.92;32.80;;;;;;;5.38;80.24;99907.11;1823196;78;21051;-75
2021/03/18 07:27:59;;;;;;;58.23;31.40;;;;;;;5.40;80.25;99911.34;1792987;78;21370;-73
2021/03/18 07:30:36;;;;;;;61.53;32.48;;;;;;;5.43;80.21;99902.53;1823421;78;24333;-74
2021/03/18 07:33:05;;;;;;;61.92;32.45;;;;;;;5.47;80.26;99904.50;1823125;78;20947;-75
2021/03/18 07:35:34;;;;;;;60.67;30.12;;;;;;;5.50;80.11;99907.80;1823020;78;20968;-73
2021/03/18 07:38:03;;;;;;;55.40;30.25;;;;;;;5.51;79.96;99900.37;1823180;78;20984;-73
2021/03/18 07:40:31;;;;;;;60.35;29.52;;;;;;;5.50;79.58;99912.17;1823224;78;21352;-74
2021/03/18 07:43:00;;;;;;;55.35;28.30;;;;;;;5.46;79.80;99909.34;1823104;78;21154;-74
2021/03/18 07:45:28;;;;;;;53.25;30.72;;;;;;;5.47;79.88;99907.97;1823136;78;20900;-73
2021/03/18 07:47:57;;;;;;;52.05;28.73;;;;;;;5.50;79.85;99906.50;1823160;78;21493;-74
2021/03/18 07:50:29;;;;;;;54.93;31.70;;;;;;;5.52;79.62;99909.03;1823217;78;21405;-74
2021/03/18 07:52:58;;;;;;;57.05;30.37;;;;;;;5.53;79.52;99910.70;1823226;78;21446;-75
2021/03/18 07:55:26;;;;;;;57.55;29.20;;;;;;;5.54;79.48;99910.63;1823008;78;20960;-73
2021/03/18 07:57:54;;;;;;;49.40;26.27;;;;;;;5.49;79.30;99911.77;1823118;78;20967;-73
2021/03/18 08:00:24;;;;;;;47.70;25.23;;;;;;;5.45;79.62;99918.91;1823097;78;21127;-73
2021/03/18 08:03:11;;;;;;;43.68;23.85;;;;;;;5.41;79.73;99914.77;1823115;78;20963;-73
2021/03/18 08:05:40;;;;;;;45.28;25.92;;;;;;;5.45;80.04;99918.04;1678392;84;21389;-75
2021/03/18 08:08:08;;;;;;;46.85;28.15;;;;;;;5.49;79.88;99918.27;1697655;84;20978;-75
2021/03/18 08:10:41;;;;;;;52.38;29.40;;;;;;;5.53;79.81;99913.30;1694267;83;20934;-75
2021/03/18 08:13:09;;;;;;;56.20;29.63;;;;;;;5.56;79.74;99920.50;1697685;84;20974;-74
2021/03/18 08:15:44;;;;;;;55.17;28.77;;;;;;;5.59;79.50;99922.10;1697631;84;21041;-75
2021/03/18 08:18:25;;;;;;;47.53;25.43;;;;;;;5.59;79.50;99929.91;1697695;84;21143;-74
2021/03/18 08:20:59;;;;;;;48.87;25.17;;;;;;;5.61;79.56;99925.00;1697660;83;21335;-73
2021/03/18 08:23:33;;;;;;;42.17;25.32;;;;;;;5.67;79.48;99928.20;1697748;83;20974;-74
2021/03/18 08:26:06;;;;;;;45.40;26.85;;;;;;;5.67;79.18;99925.16;1697688;84;21045;-76
2021/03/18 08:28:59;;;;;;;46.55;26.60;;;;;;;5.65;79.24;99922.23;1852317;77;22702;-76
2021/03/18 08:31:52;;;;;;;51.68;27.32;;;;;;;5.56;79.22;99926.17;1820019;78;20982;-76
2021/03/18 08:34:42;;;;;;;50.15;28.52;;;;;;;5.50;79.37;99929.91;1819849;78;21391;-75
2021/03/18 08:37:12;;;;;;;49.40;28.00;;;;;;;5.48;79.49;99925.23;1750230;82;21384;-76
2021/03/18 08:39:48;;;;;;;48.35;25.05;;;;;;;5.47;79.64;99925.30;1819767;78;21507;-72
2021/03/18 08:42:35;;;;;;;43.78;25.10;;;;;;;5.51;79.55;99926.84;1820015;78;20986;-75
2021/03/18 08:45:22;;;;;;;39.78;25.05;;;;;;;5.55;79.64;99930.97;1750260;82;21014;-74
2021/03/18 08:47:54;;;;;;;45.88;24.35;;;;;;;5.61;79.58;99930.67;1820032;78;21126;-74
2021/03/18 08:50:31;;;;;;;45.45;27.73;;;;;;;5.61;79.53;99930.67;1819992;78;21017;-74
2021/03/18 08:53:00;;;;;;;46.65;26.93;;;;;;;5.62;79.49;99933.64;1750247;82;20942;-72
2021/03/18 08:55:43;;;;;;;47.33;26.05;;;;;;;5.65;79.42;99936.10;1819957;78;20895;-74
2021/03/18 08:58:14;;;;;;;48.92;28.23;;;;;;;5.66;79.29;99935.17;1788779;78;21005;-74
2021/03/18 09:00:46;;;;;;;48.90;27.65;;;;;;;5.64;79.20;99929.67;1750212;81;22300;-72
2021/03/18 09:03:22;;;;;;;44.58;27.65;;;;;;;5.56;79.30;99929.61;1819889;78;20911;-74
2021/03/18 09:05:56;;;;;;;49.15;28.02;;;;;;;5.54;79.48;99931.91;1750075;81;20951;-74
2021/03/18 09:08:30;;;;;;;52.80;31.25;;;;;;;5.51;79.71;99930.73;1819776;78;21377;-73
2021/03/18 09:11:00;;;;;;;53.73;31.82;;;;;;;5.52;79.90;99937.64;1750251;81;20903;-73
2021/03/18 09:13:28;;;;;;;57.45;31.00;;;;;;;5.54;79.65;99939.70;1819878;78;21191;-75
2021/03/18 09:15:58;;;;;;;51.13;29.40;;;;;;;5.52;79.56;99943.67;1750212;81;21389;-75
2021/03/18 09:18:33;;;;;;;56.98;31.77;;;;;;;5.53;79.65;99938.01;1820092;78;21539;-70
2021/03/18 09:21:10;;;;;;;;;;;;;;;5.53;79.72;99951.02;1752674;81;21507;-70
2021/03/18 09:23:41;;;;;;;55.08;30.37;;;;;;;5.58;79.75;99947.71;1781136;80;20388;-72
2021/03/18 09:26:11;;;;;;;56.80;31.45;;;;;;;5.59;79.75;99947.64;1780870;80;22276;-70
2021/03/18 09:28:44;;;;;;;54.65;31.75;;;;;;;5.62;79.71;99950.55;1780823;80;20962;-70
2021/03/18 09:31:12;;;;;;;54.70;32.65;;;;;;;5.67;79.60;99947.71;1781018;80;21389;-75
2021/03/18 09:33:43;;;;;;;52.67;29.55;;;;;;;5.70;79.32;99948.88;1781002;80;20926;-73
2021/03/18 09:36:23;;;;;;;52.45;28.70;;;;;;;5.71;79.24;99948.77;1819904;78;20926;-74
2021/03/18 09:39:13;;;;;;;56.73;31.65;;;;;;;5.72;79.27;99948.34;1750007;81;21495;-77
2021/03/18 09:41:48;;;;;;;48.80;29.50;;;;;;;5.74;79.27;99943.91;1819472;78;21357;-80
2021/03/18 09:44:20;;;;;;;54.30;30.50;;;;;;;5.77;79.20;99945.88;1819485;78;20946;-82
2021/03/18 09:46:54;;;;;;;56.40;30.00;;;;;;;5.78;79.13;99946.70;1749629;81;20975;-73
2021/03/18 09:49:34;;;;;;;51.23;29.65;;;;;;;5.77;78.95;99941.97;1819690;78;21026;-82
2021/03/18 09:52:12;;;;;;;54.60;30.62;;;;;;;5.80;78.75;99953.54;1847911;76;22748;-80
2021/03/18 09:54:40;;;;;;;48.60;27.62;;;;;;;5.70;78.76;99953.61;1818252;79;20899;-83
2021/03/18 09:57:10;;;;;;;42.60;26.62;;;;;;;5.65;78.68;99957.34;1818046;77;21352;-76
2021/03/18 09:59:39;;;;;;;48.02;27.07;;;;;;;5.63;78.79;99956.15;1817901;78;20895;-74
2021/03/18 10:02:07;;;;;;;45.33;26.05;;;;;;;5.66;78.69;99957.75;1818128;78;21364;-75
2021/03/18 10:04:42;;;;;;;47.27;27.40;;;;;;;5.70;78.80;99959.28;1817967;77;21438;-76
2021/03/18 10:07:12;;;;;;;47.10;26.62;;;;;;;5.76;78.65;99961.11;1818265;78;26917;-75
2021/03/18 10:09:45;;;;;;;46.25;27.20;;;;;;;5.80;78.31;99960.48;1817980;78;21334;-74
2021/03/18 10:12:25;;;;;;;47.90;26.15;;;;;;;5.83;78.19;99960.81;1817886;77;20935;-77
2021/03/18 10:15:05;;;;;;;40.83;26.25;;;;;;;5.84;77.89;99958.58;1818027;78;21018;-75
2021/03/18 10:17:39;;;;;;;43.58;26.20;;;;;;;5.80;77.82;99960.05;1817871;78;21025;-74
2021/03/18 10:20:28;;;;;;;37.03;24.47;;;;;;;5.83;77.87;99963.41;1817940;77;20894;-77
2021/03/18 10:23:06;;;;;;;40.78;25.02;;;;;;;5.89;77.84;99963.94;1817907;77;21370;-77
2021/03/18 10:25:36;;;;;;;38.23;24.15;;;;;;;5.97;77.70;99962.27;1817890;79;20954;-78
2021/03/18 10:28:11;;;;;;;40.00;23.90;;;;;;;6.03;77.39;99966.33;1817964;77;21435;-75
2021/03/18 10:30:51;;;;;;;38.00;22.50;;;;;;;6.03;77.25;99965.86;1817917;77;20934;-72
2021/03/18 10:33:26;;;;;;;36.75;23.15;;;;;;;6.01;77.05;99969.83;1817919;79;20926;-72
2021/03/18 10:35:59;;;;;;;33.48;20.70;;;;;;;5.99;77.00;99968.23;1817994;79;21400;-73
2021/03/18 10:38:36;;;;;;;36.15;21.52;;;;;;;5.97;77.10;99971.37;1817870;78;20950;-75
2021/03/18 10:41:14;;;;;;;37.60;22.75;;;;;;;5.94;77.14;99968.91;1817911;77;20931;-74
2021/03/18 10:43:48;;;;;;;35.68;22.15;;;;;;;5.90;77.03;99968.67;1817650;79;21022;-75
2021/03/18 10:46:20;;;;;;;37.40;23.42;;;;;;;5.85;77.22;99973.25;1817898;79;20926;-73
2021/03/18 10:48:49;;;;;;;41.53;22.32;;;;;;;5.81;77.24;99972.59;1783607;79;21349;-74
2021/03/18 10:51:20;;;;;;;40.63;22.42;;;;;;;5.76;77.37;99968.91;1817815;78;20903;-75
2021/03/18 10:53:53;;;;;;;30.62;18.73;;;;;;;5.75;77.46;99967.22;1817985;78;20947;-76
2021/03/18 10:56:29;;;;;;;32.10;19.57;;;;;;;5.76;77.44;99965.48;1817888;77;21046;-73
2021/03/18 10:59:13;;;;;;;36.33;22.60;;;;;;;5.74;77.69;99968.15;1818010;77;20919;-74
2021/03/18 11:01:41;;;;;;;42.88;23.87;;;;;;;5.76;77.84;99973.28;1790527;79;21186;-73
2021/03/18 11:04:12;;;;;;;46.15;26.17;;;;;;;5.79;77.71;99977.02;1817265;79;21499;-73
2021/03/18 11:06:48;;;;;;;43.87;24.40;;;;;;;5.81;77.69;99976.02;1817309;78;20927;-75
2021/03/18 11:09:17;;;;;;;42.80;25.08;;;;;;;5.80;77.66;99984.77;1817225;79;20991;-75
2021/03/18 11:12:03;;;;;;;36.60;22.20;;;;;;;5.83;77.69;99981.62;1817319;77;20943;-72
2021/03/18 11:14:31;;;;;;;37.50;22.13;;;;;;;5.84;77.66;99980.69;1817262;77;21812;-73
2021/03/18 11:17:07;;;;;;;34.13;20.90;;;;;;;5.83;77.67;99984.22;1817211;79;20950;-72
2021/03/18 11:19:37;;;;;;;38.40;23.10;;;;;;;5.85;77.78;99985.83;1817346;77;21369;-72
2021/03/18 11:22:59;;;;;;;38.83;23.38;;;;;;;5.92;77.79;99985.05;1813480;79;22520;-73
2021/03/18 11:25:27;;;;;;;39.20;23.62;;;;;;;5.88;77.76;99988.73;1784127;79;21424;-72
2021/03/18 11:27:55;;;;;;;37.38;24.57;;;;;;;5.92;77.72;99992.39;1784117;80;21365;-78
2021/03/18 11:30:33;;;;;;;38.60;23.87;;;;;;;5.93;77.67;99985.42;1784074;80;21006;-76
2021/03/18 11:33:23;;;;;;;34.43;20.82;;;;;;;5.96;77.43;99984.84;1783756;80;21387;-76
2021/03/18 11:35:52;;;;;;;41.80;23.50;;;;;;;5.96;77.30;99992.66;1784205;80;20891;-80
2021/03/18 11:38:20;;;;;;;40.15;23.18;;;;;;;5.96;77.28;99998.33;1785788;79;20930;-80
2021/03/18 11:40:49;;;;;;;40.83;25.77;;;;;;;6.00;77.44;100002.00;1785875;80;21194;-80
2021/03/18 11:43:17;;;;;;;47.33;25.60;;;;;;;6.03;77.47;99997.09;1784787;79;20966;-67
2021/03/18 11:45:45;;;;;;;44.85;26.45;;;;;;;6.06;77.41;99999.52;1784071;80;21603;-69
2021/03/18 11:48:13;;;;;;;44.08;27.90;;;;;;;6.05;77.39;99991.78;1784090;79;20934;-71
2021/03/18 11:50:42;;;;;;;45.67;26.48;;;;;;;6.02;77.41;99987.58;1784096;80;20934;-73
2021/03/18 11:53:11;;;;;;;40.12;24.77;;;;;;;5.99;77.29;99990.35;1784073;80;22369;-73